KAWO/AWO METAR and TAF weather

Enter ICAO airport designator
Station Type Date Time Source
KAWO METAR 2022/06/27 18:56 UTC NOAA

KAWO 271856Z AUTO 34005KT 10SM CLR 28/18 A2992 RMK AO2 SLP135 T02830178


Station Type Date Time Source
KAWO Decoded METAR 2022/06/27 18:56 UTC NOAA

Arlington Municipal, WA, United States (KAWO) 48-10N 122-10W
Jun 27, 2022 - 02:56 PM EDT / 2022.06.27 1856 UTC
Wind: from the NNW (340 degrees) at 6 MPH (5 KT):0
Visibility: 10 mile(s):0
Sky conditions: clear
Temperature: 82.9 F (28.3 C)
Dew Point: 64.0 F (17.8 C)
Relative Humidity: 52%
Pressure (altimeter): 29.92 in. Hg (1013 hPa)
ob: KAWO 271856Z AUTO 34005KT 10SM CLR 28/18 A2992 RMK AO2 SLP135 T02830178
cycle: 19

Station Type Date Time Source
KAWO TAF UTC NOAA

Error!

Example: see airport list